sensor_id;sensor_type;location;lat;lon;timestamp;temperature;humidity
16118;DHT22;8163;50.118;5.342;2022-12-20T00:01:48;9.90;99.90
16118;DHT22;8163;50.118;5.342;2022-12-20T00:04:17;9.90;99.90
16118;DHT22;8163;50.118;5.342;2022-12-20T00:06:44;9.90;99.90
16118;DHT22;8163;50.118;5.342;2022-12-20T00:09:11;9.90;99.90
16118;DHT22;8163;50.118;5.342;2022-12-20T00:11:39;9.90;99.90
16118;DHT22;8163;50.118;5.342;2022-12-20T00:14:07;9.90;99.90
16118;DHT22;8163;50.118;5.342;2022-12-20T00:16:35;9.90;99.90
16118;DHT22;8163;50.118;5.342;2022-12-20T00:19:04;9.90;99.90
16118;DHT22;8163;50.118;5.342;2022-12-20T00:21:34;9.80;99.90
16118;DHT22;8163;50.118;5.342;2022-12-20T00:24:01;9.80;99.90
16118;DHT22;8163;50.118;5.342;2022-12-20T00:26:30;9.80;99.90
16118;DHT22;8163;50.118;5.342;2022-12-20T00:28:59;9.80;99.90
16118;DHT22;8163;50.118;5.342;2022-12-20T00:31:27;9.80;99.90
16118;DHT22;8163;50.118;5.342;2022-12-20T00:33:56;9.70;99.90
16118;DHT22;8163;50.118;5.342;2022-12-20T00:36:25;9.70;99.90
16118;DHT22;8163;50.118;5.342;2022-12-20T00:38:55;9.80;99.90
16118;DHT22;8163;50.118;5.342;2022-12-20T00:41:24;9.80;99.90
16118;DHT22;8163;50.118;5.342;2022-12-20T00:43:52;9.80;99.90
16118;DHT22;8163;50.118;5.342;2022-12-20T00:46:20;9.70;99.90
16118;DHT22;8163;50.118;5.342;2022-12-20T00:48:48;9.70;99.90
16118;DHT22;8163;50.118;5.342;2022-12-20T00:51:18;9.70;99.90
16118;DHT22;8163;50.118;5.342;2022-12-20T00:53:46;9.70;99.90
16118;DHT22;8163;50.118;5.342;2022-12-20T00:56:14;9.70;99.90
16118;DHT22;8163;50.118;5.342;2022-12-20T00:58:43;9.70;99.90
16118;DHT22;8163;50.118;5.342;2022-12-20T01:01:19;9.70;99.90
16118;DHT22;8163;50.118;5.342;2022-12-20T01:03:46;9.70;99.90
16118;DHT22;8163;50.118;5.342;2022-12-20T01:06:14;9.70;99.90
16118;DHT22;8163;50.118;5.342;2022-12-20T01:08:41;9.80;99.90
16118;DHT22;8163;50.118;5.342;2022-12-20T01:11:12;9.80;99.90
16118;DHT22;8163;50.118;5.342;2022-12-20T01:13:43;9.80;99.90
16118;DHT22;8163;50.118;5.342;2022-12-20T01:16:12;9.80;99.90
16118;DHT22;8163;50.118;5.342;2022-12-20T01:18:40;9.80;99.90
16118;DHT22;8163;50.118;5.342;2022-12-20T01:21:10;9.80;99.90
16118;DHT22;8163;50.118;5.342;2022-12-20T01:23:37;9.80;99.90
16118;DHT22;8163;50.118;5.342;2022-12-20T01:26:07;9.80;99.90
16118;DHT22;8163;50.118;5.342;2022-12-20T01:28:36;9.80;99.90
16118;DHT22;8163;50.118;5.342;2022-12-20T01:31:07;9.80;99.90
16118;DHT22;8163;50.118;5.342;2022-12-20T01:33:35;9.80;99.90
16118;DHT22;8163;50.118;5.342;2022-12-20T01:36:04;9.80;99.90
16118;DHT22;8163;50.118;5.342;2022-12-20T01:38:32;9.70;99.90
16118;DHT22;8163;50.118;5.342;2022-12-20T01:41:00;9.70;99.90
16118;DHT22;8163;50.118;5.342;2022-12-20T01:43:45;9.70;99.90
16118;DHT22;8163;50.118;5.342;2022-12-20T01:46:14;9.70;99.90
16118;DHT22;8163;50.118;5.342;2022-12-20T01:48:42;9.70;99.90
16118;DHT22;8163;50.118;5.342;2022-12-20T01:51:10;9.70;99.90
16118;DHT22;8163;50.118;5.342;2022-12-20T01:53:37;9.70;99.90
16118;DHT22;8163;50.118;5.342;2022-12-20T01:56:06;9.70;99.90
16118;DHT22;8163;50.118;5.342;2022-12-20T01:58:35;9.60;99.90
16118;DHT22;8163;50.118;5.342;2022-12-20T02:01:05;9.70;99.90
16118;DHT22;8163;50.118;5.342;2022-12-20T02:03:33;9.70;99.90
16118;DHT22;8163;50.118;5.342;2022-12-20T02:06:15;9.70;99.90
16118;DHT22;8163;50.118;5.342;2022-12-20T02:08:43;9.70;99.90
16118;DHT22;8163;50.118;5.342;2022-12-20T02:11:23;9.80;99.90
16118;DHT22;8163;50.118;5.342;2022-12-20T02:14:02;9.80;99.90
16118;DHT22;8163;50.118;5.342;2022-12-20T02:16:37;9.80;99.90
16118;DHT22;8163;50.118;5.342;2022-12-20T02:19:14;9.70;99.90
16118;DHT22;8163;50.118;5.342;2022-12-20T02:21:50;9.70;99.90
16118;DHT22;8163;50.118;5.342;2022-12-20T02:24:36;9.80;99.90
16118;DHT22;8163;50.118;5.342;2022-12-20T02:27:30;9.80;99.90
16118;DHT22;8163;50.118;5.342;2022-12-20T02:30:05;9.80;99.90
16118;DHT22;8163;50.118;5.342;2022-12-20T02:32:37;9.80;99.90
16118;DHT22;8163;50.118;5.342;2022-12-20T02:35:06;9.80;99.90
16118;DHT22;8163;50.118;5.342;2022-12-20T02:37:34;9.80;99.90
16118;DHT22;8163;50.118;5.342;2022-12-20T02:40:03;9.80;99.90
16118;DHT22;8163;50.118;5.342;2022-12-20T02:42:32;9.80;99.90
16118;DHT22;8163;50.118;5.342;2022-12-20T02:45:06;9.80;99.90
16118;DHT22;8163;50.118;5.342;2022-12-20T02:47:48;9.80;99.90
16118;DHT22;8163;50.118;5.342;2022-12-20T02:50:21;9.80;99.90
16118;DHT22;8163;50.118;5.342;2022-12-20T02:52:50;9.80;99.90
16118;DHT22;8163;50.118;5.342;2022-12-20T02:55:19;9.80;99.90
16118;DHT22;8163;50.118;5.342;2022-12-20T02:57:51;9.80;99.90
16118;DHT22;8163;50.118;5.342;2022-12-20T03:00:23;9.80;99.90
16118;DHT22;8163;50.118;5.342;2022-12-20T03:02:51;9.80;99.90
16118;DHT22;8163;50.118;5.342;2022-12-20T03:05:43;9.80;99.90
16118;DHT22;8163;50.118;5.342;2022-12-20T03:08:11;9.80;99.90
16118;DHT22;8163;50.118;5.342;2022-12-20T03:10:38;9.80;99.90
16118;DHT22;8163;50.118;5.342;2022-12-20T03:13:05;9.90;99.90
16118;DHT22;8163;50.118;5.342;2022-12-20T03:15:37;9.80;99.90
16118;DHT22;8163;50.118;5.342;2022-12-20T03:18:04;9.80;99.90
16118;DHT22;8163;50.118;5.342;2022-12-20T03:20:31;9.80;99.90
16118;DHT22;8163;50.118;5.342;2022-12-20T03:22:58;9.80;99.90
16118;DHT22;8163;50.118;5.342;2022-12-20T03:25:25;9.80;99.90
16118;DHT22;8163;50.118;5.342;2022-12-20T03:27:52;9.80;99.90
16118;DHT22;8163;50.118;5.342;2022-12-20T03:30:19;9.80;99.90
16118;DHT22;8163;50.118;5.342;2022-12-20T03:32:48;9.80;99.90
16118;DHT22;8163;50.118;5.342;2022-12-20T03:35:15;9.80;99.90
16118;DHT22;8163;50.118;5.342;2022-12-20T03:37:42;9.80;99.90
16118;DHT22;8163;50.118;5.342;2022-12-20T03:40:10;9.80;99.90
16118;DHT22;8163;50.118;5.342;2022-12-20T03:42:37;9.80;99.90
16118;DHT22;8163;50.118;5.342;2022-12-20T03:45:05;9.70;99.90
16118;DHT22;8163;50.118;5.342;2022-12-20T03:47:32;9.80;99.90
16118;DHT22;8163;50.118;5.342;2022-12-20T03:50:00;9.80;99.90
16118;DHT22;8163;50.118;5.342;2022-12-20T03:52:27;9.70;99.90
16118;DHT22;8163;50.118;5.342;2022-12-20T03:54:54;9.70;99.90
16118;DHT22;8163;50.118;5.342;2022-12-20T03:57:21;9.70;99.90
16118;DHT22;8163;50.118;5.342;2022-12-20T03:59:48;9.70;99.90
16118;DHT22;8163;50.118;5.342;2022-12-20T04:02:15;9.70;99.90
16118;DHT22;8163;50.118;5.342;2022-12-20T04:04:42;9.70;99.90
16118;DHT22;8163;50.118;5.342;2022-12-20T04:07:10;9.70;99.90
16118;DHT22;8163;50.118;5.342;2022-12-20T04:09:37;9.80;99.90
16118;DHT22;8163;50.118;5.342;2022-12-20T04:12:04;9.80;99.90
16118;DHT22;8163;50.118;5.342;2022-12-20T04:14:31;9.80;99.90
16118;DHT22;8163;50.118;5.342;2022-12-20T04:16:58;9.90;99.90
16118;DHT22;8163;50.118;5.342;2022-12-20T04:19:25;9.90;99.90
16118;DHT22;8163;50.118;5.342;2022-12-20T04:21:52;9.80;99.90
16118;DHT22;8163;50.118;5.342;2022-12-20T04:24:24;9.90;99.90
16118;DHT22;8163;50.118;5.342;2022-12-20T04:26:51;9.80;99.90
16118;DHT22;8163;50.118;5.342;2022-12-20T04:29:18;9.80;99.90
16118;DHT22;8163;50.118;5.342;2022-12-20T04:31:45;9.80;99.90
16118;DHT22;8163;50.118;5.342;2022-12-20T04:34:12;9.80;99.90
16118;DHT22;8163;50.118;5.342;2022-12-20T04:36:39;9.80;99.90
16118;DHT22;8163;50.118;5.342;2022-12-20T04:39:06;9.80;99.90
16118;DHT22;8163;50.118;5.342;2022-12-20T04:41:34;9.80;99.90
16118;DHT22;8163;50.118;5.342;2022-12-20T04:44:01;9.80;99.90
16118;DHT22;8163;50.118;5.342;2022-12-20T04:46:28;9.80;99.90
16118;DHT22;8163;50.118;5.342;2022-12-20T04:48:55;9.70;99.90
16118;DHT22;8163;50.118;5.342;2022-12-20T04:51:22;9.70;99.90
16118;DHT22;8163;50.118;5.342;2022-12-20T04:53:49;9.80;99.90
16118;DHT22;8163;50.118;5.342;2022-12-20T04:56:16;9.80;99.90
16118;DHT22;8163;50.118;5.342;2022-12-20T04:58:46;9.80;99.90
16118;DHT22;8163;50.118;5.342;2022-12-20T05:01:13;9.80;99.90
16118;DHT22;8163;50.118;5.342;2022-12-20T05:03:41;9.80;99.90
16118;DHT22;8163;50.118;5.342;2022-12-20T05:06:08;9.80;99.90
16118;DHT22;8163;50.118;5.342;2022-12-20T05:08:35;9.80;99.90
16118;DHT22;8163;50.118;5.342;2022-12-20T05:11:03;9.80;99.90
16118;DHT22;8163;50.118;5.342;2022-12-20T05:13:31;9.80;99.90
16118;DHT22;8163;50.118;5.342;2022-12-20T05:16:00;9.80;99.90
16118;DHT22;8163;50.118;5.342;2022-12-20T05:18:27;9.80;99.90
16118;DHT22;8163;50.118;5.342;2022-12-20T05:20:55;9.80;99.90
16118;DHT22;8163;50.118;5.342;2022-12-20T05:23:40;9.80;99.90
16118;DHT22;8163;50.118;5.342;2022-12-20T05:26:24;9.80;99.90
16118;DHT22;8163;50.118;5.342;2022-12-20T05:28:52;9.80;99.90
16118;DHT22;8163;50.118;5.342;2022-12-20T05:31:20;9.80;99.90
16118;DHT22;8163;50.118;5.342;2022-12-20T05:33:47;9.90;99.90
16118;DHT22;8163;50.118;5.342;2022-12-20T05:36:14;9.90;99.90
16118;DHT22;8163;50.118;5.342;2022-12-20T05:38:44;9.90;99.90
16118;DHT22;8163;50.118;5.342;2022-12-20T05:41:11;9.90;99.90
16118;DHT22;8163;50.118;5.342;2022-12-20T05:43:37;9.90;99.90
16118;DHT22;8163;50.118;5.342;2022-12-20T05:46:05;9.90;99.90
16118;DHT22;8163;50.118;5.342;2022-12-20T05:48:33;9.90;99.90
16118;DHT22;8163;50.118;5.342;2022-12-20T05:51:00;9.90;99.90
16118;DHT22;8163;50.118;5.342;2022-12-20T05:53:27;9.90;99.90
16118;DHT22;8163;50.118;5.342;2022-12-20T05:55:55;9.90;99.90
16118;DHT22;8163;50.118;5.342;2022-12-20T05:58:22;9.90;99.90
16118;DHT22;8163;50.118;5.342;2022-12-20T06:00:49;9.80;99.90
16118;DHT22;8163;50.118;5.342;2022-12-20T06:03:16;9.80;99.90
16118;DHT22;8163;50.118;5.342;2022-12-20T06:05:45;9.80;99.90
16118;DHT22;8163;50.118;5.342;2022-12-20T06:08:12;9.90;99.90
16118;DHT22;8163;50.118;5.342;2022-12-20T06:10:40;9.90;99.90
16118;DHT22;8163;50.118;5.342;2022-12-20T06:13:08;9.90;99.90
16118;DHT22;8163;50.118;5.342;2022-12-20T06:15:36;9.90;99.90
16118;DHT22;8163;50.118;5.342;2022-12-20T06:18:04;9.80;99.90
16118;DHT22;8163;50.118;5.342;2022-12-20T06:20:32;9.80;99.90
16118;DHT22;8163;50.118;5.342;2022-12-20T06:23:01;9.90;99.90
16118;DHT22;8163;50.118;5.342;2022-12-20T06:25:28;9.90;99.90
16118;DHT22;8163;50.118;5.342;2022-12-20T06:27:56;9.90;99.90
16118;DHT22;8163;50.118;5.342;2022-12-20T06:30:23;9.90;99.90
16118;DHT22;8163;50.118;5.342;2022-12-20T06:32:50;9.90;99.90
16118;DHT22;8163;50.118;5.342;2022-12-20T06:35:17;9.90;99.90
16118;DHT22;8163;50.118;5.342;2022-12-20T06:37:44;9.80;99.90
16118;DHT22;8163;50.118;5.342;2022-12-20T06:40:13;9.90;99.90
16118;DHT22;8163;50.118;5.342;2022-12-20T06:42:40;9.90;99.90
16118;DHT22;8163;50.118;5.342;2022-12-20T06:45:08;9.90;99.90
16118;DHT22;8163;50.118;5.342;2022-12-20T06:47:35;9.90;99.90
16118;DHT22;8163;50.118;5.342;2022-12-20T06:50:04;10.00;99.90
16118;DHT22;8163;50.118;5.342;2022-12-20T06:52:31;10.00;99.90
16118;DHT22;8163;50.118;5.342;2022-12-20T06:54:58;10.00;99.90
16118;DHT22;8163;50.118;5.342;2022-12-20T06:57:27;10.00;99.90
16118;DHT22;8163;50.118;5.342;2022-12-20T06:59:53;10.00;99.90
16118;DHT22;8163;50.118;5.342;2022-12-20T07:02:20;10.00;99.90
16118;DHT22;8163;50.118;5.342;2022-12-20T07:04:47;10.00;99.90
16118;DHT22;8163;50.118;5.342;2022-12-20T07:07:15;10.10;99.90
16118;DHT22;8163;50.118;5.342;2022-12-20T07:09:42;10.00;99.90
16118;DHT22;8163;50.118;5.342;2022-12-20T07:12:09;10.00;99.90
16118;DHT22;8163;50.118;5.342;2022-12-20T07:14:39;10.10;99.90
16118;DHT22;8163;50.118;5.342;2022-12-20T07:17:06;10.10;99.90
16118;DHT22;8163;50.118;5.342;2022-12-20T07:19:33;10.10;99.90
16118;DHT22;8163;50.118;5.342;2022-12-20T07:22:00;10.10;99.90
16118;DHT22;8163;50.118;5.342;2022-12-20T07:24:27;10.10;99.90
16118;DHT22;8163;50.118;5.342;2022-12-20T07:26:54;10.10;99.90
16118;DHT22;8163;50.118;5.342;2022-12-20T07:29:21;10.10;99.90
16118;DHT22;8163;50.118;5.342;2022-12-20T07:31:50;10.10;99.90
16118;DHT22;8163;50.118;5.342;2022-12-20T07:34:17;10.10;99.90
16118;DHT22;8163;50.118;5.342;2022-12-20T07:36:44;10.10;99.90
16118;DHT22;8163;50.118;5.342;2022-12-20T07:39:11;10.10;99.90
16118;DHT22;8163;50.118;5.342;2022-12-20T07:41:38;10.10;99.90
16118;DHT22;8163;50.118;5.342;2022-12-20T07:44:05;10.10;99.90
16118;DHT22;8163;50.118;5.342;2022-12-20T07:46:32;10.10;99.90
16118;DHT22;8163;50.118;5.342;2022-12-20T07:49:00;10.10;99.90
16118;DHT22;8163;50.118;5.342;2022-12-20T07:51:31;10.10;99.90
16118;DHT22;8163;50.118;5.342;2022-12-20T07:54:04;10.10;99.90
16118;DHT22;8163;50.118;5.342;2022-12-20T07:56:34;10.10;99.90
16118;DHT22;8163;50.118;5.342;2022-12-20T07:59:03;10.20;99.90
16118;DHT22;8163;50.118;5.342;2022-12-20T08:01:30;10.20;99.90
16118;DHT22;8163;50.118;5.342;2022-12-20T08:04:01;10.20;99.90
16118;DHT22;8163;50.118;5.342;2022-12-20T08:06:30;10.20;99.90
16118;DHT22;8163;50.118;5.342;2022-12-20T08:09:00;10.20;99.90
16118;DHT22;8163;50.118;5.342;2022-12-20T08:11:29;10.20;99.90
16118;DHT22;8163;50.118;5.342;2022-12-20T08:13:58;10.20;99.90
16118;DHT22;8163;50.118;5.342;2022-12-20T08:16:25;10.20;99.90
16118;DHT22;8163;50.118;5.342;2022-12-20T08:18:52;10.20;99.90
16118;DHT22;8163;50.118;5.342;2022-12-20T08:21:20;10.30;99.90
16118;DHT22;8163;50.118;5.342;2022-12-20T08:23:47;10.20;99.90
16118;DHT22;8163;50.118;5.342;2022-12-20T08:26:14;10.30;99.90
16118;DHT22;8163;50.118;5.342;2022-12-20T08:28:42;10.30;99.90
16118;DHT22;8163;50.118;5.342;2022-12-20T08:31:09;10.30;99.90
16118;DHT22;8163;50.118;5.342;2022-12-20T08:33:38;10.40;99.90
16118;DHT22;8163;50.118;5.342;2022-12-20T08:36:07;10.40;99.90
16118;DHT22;8163;50.118;5.342;2022-12-20T08:38:36;10.40;99.90
16118;DHT22;8163;50.118;5.342;2022-12-20T08:41:05;10.40;99.90
16118;DHT22;8163;50.118;5.342;2022-12-20T08:43:33;10.50;99.90
16118;DHT22;8163;50.118;5.342;2022-12-20T08:46:00;10.40;99.90
16118;DHT22;8163;50.118;5.342;2022-12-20T08:48:27;10.40;99.90
16118;DHT22;8163;50.118;5.342;2022-12-20T08:50:55;10.50;99.90
16118;DHT22;8163;50.118;5.342;2022-12-20T08:53:22;10.50;99.90
16118;DHT22;8163;50.118;5.342;2022-12-20T08:55:51;10.60;99.90
16118;DHT22;8163;50.118;5.342;2022-12-20T08:58:20;10.50;99.90
16118;DHT22;8163;50.118;5.342;2022-12-20T09:00:47;10.50;99.90
16118;DHT22;8163;50.118;5.342;2022-12-20T09:03:14;10.50;99.90
16118;DHT22;8163;50.118;5.342;2022-12-20T09:05:44;10.40;99.90
16118;DHT22;8163;50.118;5.342;2022-12-20T09:08:17;10.50;99.90
16118;DHT22;8163;50.118;5.342;2022-12-20T09:10:44;10.40;99.90
16118;DHT22;8163;50.118;5.342;2022-12-20T09:13:13;10.40;99.90
16118;DHT22;8163;50.118;5.342;2022-12-20T09:15:39;10.40;99.90
16118;DHT22;8163;50.118;5.342;2022-12-20T09:18:06;10.40;99.90
16118;DHT22;8163;50.118;5.342;2022-12-20T09:20:33;10.40;99.90
16118;DHT22;8163;50.118;5.342;2022-12-20T09:23:00;10.50;99.90
16118;DHT22;8163;50.118;5.342;2022-12-20T09:25:27;10.50;99.90
16118;DHT22;8163;50.118;5.342;2022-12-20T09:27:54;10.70;99.90
16118;DHT22;8163;50.118;5.342;2022-12-20T09:30:23;10.70;99.90
16118;DHT22;8163;50.118;5.342;2022-12-20T09:32:50;10.70;99.90
16118;DHT22;8163;50.118;5.342;2022-12-20T09:35:17;10.80;99.90
16118;DHT22;8163;50.118;5.342;2022-12-20T09:37:44;10.80;99.90
16118;DHT22;8163;50.118;5.342;2022-12-20T09:40:17;10.80;99.90
16118;DHT22;8163;50.118;5.342;2022-12-20T09:42:46;10.80;99.90
16118;DHT22;8163;50.118;5.342;2022-12-20T09:45:19;10.80;99.90
16118;DHT22;8163;50.118;5.342;2022-12-20T09:47:48;10.80;99.90
16118;DHT22;8163;50.118;5.342;2022-12-20T09:50:18;10.70;99.90
16118;DHT22;8163;50.118;5.342;2022-12-20T09:52:55;10.70;99.90
16118;DHT22;8163;50.118;5.342;2022-12-20T09:55:32;10.70;99.90
16118;DHT22;8163;50.118;5.342;2022-12-20T09:58:14;10.70;99.90
16118;DHT22;8163;50.118;5.342;2022-12-20T10:00:46;10.60;99.90
16118;DHT22;8163;50.118;5.342;2022-12-20T10:03:18;10.60;99.90
16118;DHT22;8163;50.118;5.342;2022-12-20T10:05:50;10.60;99.90
16118;DHT22;8163;50.118;5.342;2022-12-20T10:08:27;10.60;99.90
16118;DHT22;8163;50.118;5.342;2022-12-20T10:11:05;10.60;99.90
16118;DHT22;8163;50.118;5.342;2022-12-20T10:13:46;10.60;99.90
16118;DHT22;8163;50.118;5.342;2022-12-20T10:16:32;10.60;99.90
16118;DHT22;8163;50.118;5.342;2022-12-20T10:19:16;10.60;99.90
16118;DHT22;8163;50.118;5.342;2022-12-20T10:21:51;10.60;99.90
16118;DHT22;8163;50.118;5.342;2022-12-20T10:24:24;10.50;99.90
16118;DHT22;8163;50.118;5.342;2022-12-20T10:26:53;10.50;99.90
16118;DHT22;8163;50.118;5.342;2022-12-20T10:29:20;10.50;99.90
16118;DHT22;8163;50.118;5.342;2022-12-20T10:31:49;10.50;99.90
16118;DHT22;8163;50.118;5.342;2022-12-20T10:34:18;10.60;99.90
16118;DHT22;8163;50.118;5.342;2022-12-20T10:36:45;10.60;99.90
16118;DHT22;8163;50.118;5.342;2022-12-20T10:39:14;10.60;99.90
16118;DHT22;8163;50.118;5.342;2022-12-20T10:41:49;10.70;99.90
16118;DHT22;8163;50.118;5.342;2022-12-20T10:44:19;10.70;99.90
16118;DHT22;8163;50.118;5.342;2022-12-20T10:46:52;10.70;99.90
16118;DHT22;8163;50.118;5.342;2022-12-20T10:49:29;10.90;99.90
16118;DHT22;8163;50.118;5.342;2022-12-20T10:51:58;11.30;99.90
16118;DHT22;8163;50.118;5.342;2022-12-20T10:54:30;11.50;99.90
16118;DHT22;8163;50.118;5.342;2022-12-20T10:56:59;11.50;99.90
16118;DHT22;8163;50.118;5.342;2022-12-20T10:59:33;11.70;99.90
16118;DHT22;8163;50.118;5.342;2022-12-20T11:02:08;11.80;99.90
16118;DHT22;8163;50.118;5.342;2022-12-20T11:04:57;11.90;99.90
16118;DHT22;8163;50.118;5.342;2022-12-20T11:07:26;12.10;99.90
16118;DHT22;8163;50.118;5.342;2022-12-20T11:09:55;12.40;99.90
16118;DHT22;8163;50.118;5.342;2022-12-20T11:12:22;12.70;99.90
16118;DHT22;8163;50.118;5.342;2022-12-20T11:14:49;12.80;99.90
16118;DHT22;8163;50.118;5.342;2022-12-20T11:17:37;12.90;99.90
16118;DHT22;8163;50.118;5.342;2022-12-20T11:20:21;12.80;99.90
16118;DHT22;8163;50.118;5.342;2022-12-20T11:23:01;12.70;99.90
16118;DHT22;8163;50.118;5.342;2022-12-20T11:25:51;12.60;99.90
16118;DHT22;8163;50.118;5.342;2022-12-20T11:28:31;12.60;99.90
16118;DHT22;8163;50.118;5.342;2022-12-20T11:31:10;12.60;99.90
16118;DHT22;8163;50.118;5.342;2022-12-20T11:34:05;12.60;99.90
16118;DHT22;8163;50.118;5.342;2022-12-20T11:36:53;12.70;99.90
16118;DHT22;8163;50.118;5.342;2022-12-20T11:39:31;12.80;99.90
16118;DHT22;8163;50.118;5.342;2022-12-20T11:42:04;13.40;99.90
16118;DHT22;8163;50.118;5.342;2022-12-20T11:44:48;14.20;99.90
16118;DHT22;8163;50.118;5.342;2022-12-20T11:47:37;14.30;99.90
16118;DHT22;8163;50.118;5.342;2022-12-20T11:50:35;14.10;99.90
16118;DHT22;8163;50.118;5.342;2022-12-20T11:53:16;14.40;99.90
16118;DHT22;8163;50.118;5.342;2022-12-20T11:55:47;15.70;99.90
16118;DHT22;8163;50.118;5.342;2022-12-20T11:58:19;16.90;99.90
16118;DHT22;8163;50.118;5.342;2022-12-20T12:00:53;16.20;99.90
16118;DHT22;8163;50.118;5.342;2022-12-20T12:03:26;15.40;99.90
16118;DHT22;8163;50.118;5.342;2022-12-20T12:05:56;14.70;99.80
16118;DHT22;8163;50.118;5.342;2022-12-20T12:08:33;14.20;99.00
16118;DHT22;8163;50.118;5.342;2022-12-20T12:11:06;13.70;98.10
16118;DHT22;8163;50.118;5.342;2022-12-20T12:13:35;13.40;98.00
16118;DHT22;8163;50.118;5.342;2022-12-20T12:16:07;13.30;98.20
16118;DHT22;8163;50.118;5.342;2022-12-20T12:18:37;13.20;98.30
16118;DHT22;8163;50.118;5.342;2022-12-20T12:21:09;13.20;98.70
16118;DHT22;8163;50.118;5.342;2022-12-20T12:23:47;13.20;98.80
16118;DHT22;8163;50.118;5.342;2022-12-20T12:26:21;13.00;98.70
16118;DHT22;8163;50.118;5.342;2022-12-20T12:28:52;13.00;99.00
16118;DHT22;8163;50.118;5.342;2022-12-20T12:31:25;12.80;98.90
16118;DHT22;8163;50.118;5.342;2022-12-20T12:34:03;12.80;99.20
16118;DHT22;8163;50.118;5.342;2022-12-20T12:36:50;12.60;98.90
16118;DHT22;8163;50.118;5.342;2022-12-20T12:39:50;12.50;99.20
16118;DHT22;8163;50.118;5.342;2022-12-20T12:48:44;12.10;99.80
16118;DHT22;8163;50.118;5.342;2022-12-20T12:51:13;12.00;99.90
16118;DHT22;8163;50.118;5.342;2022-12-20T12:53:43;11.90;99.90
16118;DHT22;8163;50.118;5.342;2022-12-20T12:56:38;12.00;99.90
16118;DHT22;8163;50.118;5.342;2022-12-20T13:02:50;12.00;99.90
16118;DHT22;8163;50.118;5.342;2022-12-20T13:05:33;12.00;99.90
16118;DHT22;8163;50.118;5.342;2022-12-20T13:08:00;12.00;99.90
16118;DHT22;8163;50.118;5.342;2022-12-20T13:13:30;12.00;99.90
16118;DHT22;8163;50.118;5.342;2022-12-20T13:16:27;11.90;99.90
16118;DHT22;8163;50.118;5.342;2022-12-20T13:19:11;11.70;99.90
16118;DHT22;8163;50.118;5.342;2022-12-20T13:21:39;11.60;99.90
16118;DHT22;8163;50.118;5.342;2022-12-20T13:24:52;11.50;99.90
16118;DHT22;8163;50.118;5.342;2022-12-20T13:35:59;11.60;99.90
16118;DHT22;8163;50.118;5.342;2022-12-20T13:38:57;11.70;99.90
16118;DHT22;8163;50.118;5.342;2022-12-20T13:41:35;11.80;99.90
16118;DHT22;8163;50.118;5.342;2022-12-20T13:47:15;11.50;99.90
16118;DHT22;8163;50.118;5.342;2022-12-20T13:49:46;11.40;99.90
16118;DHT22;8163;50.118;5.342;2022-12-20T13:52:22;11.40;99.90
16118;DHT22;8163;50.118;5.342;2022-12-20T13:54:53;11.30;99.90
16118;DHT22;8163;50.118;5.342;2022-12-20T13:57:27;11.20;99.90
16118;DHT22;8163;50.118;5.342;2022-12-20T14:36:15;10.30;99.90
16118;DHT22;8163;50.118;5.342;2022-12-20T14:38:45;10.30;99.90
16118;DHT22;8163;50.118;5.342;2022-12-20T14:41:29;10.20;99.90
16118;DHT22;8163;50.118;5.342;2022-12-20T14:43:58;10.20;99.90
16118;DHT22;8163;50.118;5.342;2022-12-20T14:46:27;10.20;99.90
16118;DHT22;8163;50.118;5.342;2022-12-20T14:49:10;10.20;99.90
16118;DHT22;8163;50.118;5.342;2022-12-20T14:51:42;10.20;99.90
16118;DHT22;8163;50.118;5.342;2022-12-20T14:54:15;10.20;99.90
16118;DHT22;8163;50.118;5.342;2022-12-20T14:56:45;10.20;99.90
16118;DHT22;8163;50.118;5.342;2022-12-20T14:59:14;10.20;99.90
16118;DHT22;8163;50.118;5.342;2022-12-20T15:01:41;10.20;99.90
16118;DHT22;8163;50.118;5.342;2022-12-20T15:04:23;10.10;99.90
16118;DHT22;8163;50.118;5.342;2022-12-20T15:06:52;10.10;99.90
16118;DHT22;8163;50.118;5.342;2022-12-20T15:09:19;10.10;99.90
16118;DHT22;8163;50.118;5.342;2022-12-20T15:11:46;10.10;99.90
16118;DHT22;8163;50.118;5.342;2022-12-20T15:14:31;10.10;99.90
16118;DHT22;8163;50.118;5.342;2022-12-20T15:17:02;10.00;99.90
16118;DHT22;8163;50.118;5.342;2022-12-20T15:19:29;10.00;99.90
16118;DHT22;8163;50.118;5.342;2022-12-20T15:21:59;10.00;99.90
16118;DHT22;8163;50.118;5.342;2022-12-20T15:24:27;10.00;99.90
16118;DHT22;8163;50.118;5.342;2022-12-20T15:26:54;9.90;99.90
16118;DHT22;8163;50.118;5.342;2022-12-20T15:29:23;9.90;99.90
16118;DHT22;8163;50.118;5.342;2022-12-20T15:31:52;9.80;99.90
16118;DHT22;8163;50.118;5.342;2022-12-20T15:34:25;9.80;99.90
16118;DHT22;8163;50.118;5.342;2022-12-20T15:36:53;9.70;99.90
16118;DHT22;8163;50.118;5.342;2022-12-20T15:39:26;9.70;99.90
16118;DHT22;8163;50.118;5.342;2022-12-20T15:41:54;9.70;99.90
16118;DHT22;8163;50.118;5.342;2022-12-20T15:44:23;9.70;99.90
16118;DHT22;8163;50.118;5.342;2022-12-20T15:46:51;9.60;99.90
16118;DHT22;8163;50.118;5.342;2022-12-20T15:49:20;9.60;99.90
16118;DHT22;8163;50.118;5.342;2022-12-20T15:51:48;9.60;99.90
16118;DHT22;8163;50.118;5.342;2022-12-20T15:54:22;9.50;99.90
16118;DHT22;8163;50.118;5.342;2022-12-20T15:56:53;9.50;99.90
16118;DHT22;8163;50.118;5.342;2022-12-20T15:59:21;9.50;99.90
16118;DHT22;8163;50.118;5.342;2022-12-20T16:01:49;9.50;99.90
16118;DHT22;8163;50.118;5.342;2022-12-20T16:04:19;9.50;99.90
16118;DHT22;8163;50.118;5.342;2022-12-20T16:06:48;9.50;99.90
16118;DHT22;8163;50.118;5.342;2022-12-20T16:09:15;9.50;99.90
16118;DHT22;8163;50.118;5.342;2022-12-20T16:11:44;9.50;99.90
16118;DHT22;8163;50.118;5.342;2022-12-20T16:14:16;9.40;99.90
16118;DHT22;8163;50.118;5.342;2022-12-20T16:16:43;9.50;99.90
16118;DHT22;8163;50.118;5.342;2022-12-20T16:19:12;9.40;99.90
16118;DHT22;8163;50.118;5.342;2022-12-20T16:21:42;9.40;99.90
16118;DHT22;8163;50.118;5.342;2022-12-20T16:24:12;9.40;99.90
16118;DHT22;8163;50.118;5.342;2022-12-20T16:26:39;9.40;99.90
16118;DHT22;8163;50.118;5.342;2022-12-20T16:29:07;9.40;99.90
16118;DHT22;8163;50.118;5.342;2022-12-20T16:31:36;9.40;99.90
16118;DHT22;8163;50.118;5.342;2022-12-20T16:34:05;9.40;99.90
16118;DHT22;8163;50.118;5.342;2022-12-20T16:36:33;9.40;99.90
16118;DHT22;8163;50.118;5.342;2022-12-20T16:39:00;9.40;99.90
16118;DHT22;8163;50.118;5.342;2022-12-20T16:41:29;9.40;99.90
16118;DHT22;8163;50.118;5.342;2022-12-20T16:43:57;9.40;99.90
16118;DHT22;8163;50.118;5.342;2022-12-20T16:46:26;9.30;99.90
16118;DHT22;8163;50.118;5.342;2022-12-20T16:48:56;9.40;99.90
16118;DHT22;8163;50.118;5.342;2022-12-20T16:51:28;9.40;99.90
16118;DHT22;8163;50.118;5.342;2022-12-20T16:53:57;9.30;99.90
16118;DHT22;8163;50.118;5.342;2022-12-20T16:56:27;9.30;99.90
16118;DHT22;8163;50.118;5.342;2022-12-20T16:58:55;9.40;99.90
16118;DHT22;8163;50.118;5.342;2022-12-20T17:01:26;9.30;99.90
16118;DHT22;8163;50.118;5.342;2022-12-20T17:03:56;9.30;99.90
16118;DHT22;8163;50.118;5.342;2022-12-20T17:06:23;9.30;99.90
16118;DHT22;8163;50.118;5.342;2022-12-20T17:08:50;9.30;99.90
16118;DHT22;8163;50.118;5.342;2022-12-20T17:11:20;9.40;99.90
16118;DHT22;8163;50.118;5.342;2022-12-20T17:13:48;9.30;99.90
16118;DHT22;8163;50.118;5.342;2022-12-20T17:16:16;9.30;99.90
16118;DHT22;8163;50.118;5.342;2022-12-20T17:18:45;9.40;99.90